< Typhoon 198932 1990 Season Typhoon 199002 >
Typhoon 199001 (KORYN)
General InformationTrack Information on Google MapsDetailed Wind InformationList of All Images || Disaster Info.ResourceGoogle EarthGE AnimationAtom FeedGeoJSON
Detalied Best Track (Time Zone = UTC)
Year Month Day Hour Lat. Long. Pressure (hPa) Wind (kt) Class Image Chart
1990 1 12 00 7.0 153.0 1002 0 2 Image Chart
1990 1 12 06 7.0 152.5 1000 0 2 Image Chart
1990 1 12 12 8.0 151.5 1000 0 2 Image Chart
1990 1 12 18 8.5 150.5 998 0 2 Image Chart
1990 1 13 00 9.0 149.5 998 0 2 Image Chart
1990 1 13 06 9.7 148.2 996 35 3 Image Chart
1990 1 13 12 11.1 146.7 996 35 3 Image Chart
1990 1 13 18 12.6 145.6 994 40 3 Image Chart
1990 1 14 00 13.1 145.6 990 45 3 Image Chart
1990 1 14 06 13.8 145.5 985 50 4 Image Chart
1990 1 14 12 14.5 145.5 980 55 4 Image Chart
1990 1 14 18 15.0 145.6 980 55 4 Image Chart
1990 1 15 00 15.5 145.8 980 55 4 Image Chart
1990 1 15 06 16.1 146.1 980 55 4 Image Chart
1990 1 15 12 16.6 146.2 980 55 4 Image Chart
1990 1 15 18 17.1 146.2 980 55 4 Image Chart
1990 1 16 00 18.3 146.4 985 50 4 Image Chart
1990 1 16 06 19.7 147.0 985 50 4 Image Chart
1990 1 16 12 21.1 147.9 990 45 3 Image Chart
1990 1 16 18 22.5 149.0 996 35 3 Image Chart
1990 1 17 00 24.0 151.0 996 0 6 Image Chart
1990 1 17 06 26.0 155.0 992 0 6 Image Chart
1990 1 17 12 30.0 160.0 996 0 6 Image Chart
1990 1 17 18 31.0 166.0 996 0 6 Image Chart
Japan Meteorological Agency Best Track Data | Correction Date : 1992-10-21
< Typhoon 198932 1990 Season Typhoon 199002 >

Help